^^
Station Historical Data
Daily Summary for May 14, 2019 Units:  English    Metric   Both
« Previous Day
Next Day »
Daily Weekly Monthly Yearly Custom
  High: Low: Average:
Temperature: 76.6 °F 46.7 °F 62.3 °F
Dew Point: 50.2 °F 38.4 °F 43.6 °F
Humidity: 98% 29% 56%
Wind Speed: 26mph 0mph 8.5mph
Wind Gust: 31mph - -
Wind- - East
Pressure: 29.82 in 29.60 in -
Precipitation: 0 in    
Historical Graphs
 
 
Tabular Data for May 14, 2019
Time Temperature Dew Point Pressure Wind Wind Speed Wind Gust Humidity Rainfall Rate (Hourly) solar Conditions
00:04 58.2 °F 49.2 °F 29.60 in ENE 5 mph 12 mph 72% 0 in 0.00 W/m2
00:09 58.3 °F 48.9 °F 29.60 in ENE 6 mph 10 mph 71% 0 in 0.00 W/m2
00:14 58.2 °F 48.8 °F 29.60 in ENE 6 mph 10 mph 71% 0 in 0.00 W/m2
00:19 58.3 °F 48.9 °F 29.60 in ENE 4 mph 9 mph 71% 0 in 0.00 W/m2
00:24 58 °F 48.6 °F 29.60 in NE 6 mph 9 mph 71% 0 in 0.00 W/m2
00:29 57.6 °F 48.6 °F 29.61 in ENE 6 mph 7 mph 72% 0 in 0.00 W/m2
00:34 57.4 °F 48.8 °F 29.61 in ENE 1 mph 6 mph 73% 0 in 0.00 W/m2
00:39 57.1 °F 48.5 °F 29.61 in East 2 mph 6 mph 73% 0 in 0.00 W/m2
00:44 56.8 °F 48.6 °F 29.61 in NNE 4 mph 6 mph 74% 0 in 0.00 W/m2
00:49 56.3 °F 48.1 °F 29.62 in NNE 2 mph 8 mph 74% 0 in 0.00 W/m2
00:54 55.5 °F 47.7 °F 29.62 in NNE 2 mph 8 mph 75% 0 in 0.00 W/m2
00:59 55 °F 47.9 °F 29.62 in NE 5 mph 6 mph 77% 0 in 0.00 W/m2
01:04 54.4 °F 47.3 °F 29.62 in North 4 mph 6 mph 77% 0 in 0.00 W/m2
01:09 54.1 °F 47.7 °F 29.63 in NNW 6 mph 8 mph 79% 0 in 0.00 W/m2
01:14 53.7 °F 47.3 °F 29.63 in NNW 5 mph 8 mph 79% 0 in 0.00 W/m2
01:19 53.1 °F 47.1 °F 29.63 in NNW 5 mph 9 mph 80% 0 in 0.00 W/m2
01:24 52.4 °F 46.7 °F 29.63 in North 4 mph 9 mph 81% 0 in 0.00 W/m2
01:29 52.1 °F 47.1 °F 29.63 in North 3 mph 9 mph 83% 0 in 0.00 W/m2
01:34 52 °F 47 °F 29.63 in NNE 4 mph 8 mph 83% 0 in 0.00 W/m2
01:39 51.9 °F 47.2 °F 29.63 in NNE 6 mph 9 mph 84% 0 in 0.00 W/m2
01:44 52.1 °F 47.4 °F 29.63 in NE 5 mph 9 mph 84% 0 in 0.00 W/m2
01:49 52.1 °F 47.4 °F 29.63 in NNE 4 mph 9 mph 84% 0 in 0.00 W/m2
01:54 52 °F 47.3 °F 29.63 in ESE 3 mph 9 mph 84% 0 in 0.00 W/m2
01:59 51.7 °F 47 °F 29.64 in East 4 mph 9 mph 84% 0 in 0.00 W/m2
02:04 51.6 °F 47.2 °F 29.64 in ESE 3 mph 8 mph 85% 0 in 0.00 W/m2
02:09 51.5 °F 47.1 °F 29.63 in East 1 mph 8 mph 85% 0 in 0.00 W/m2
02:14 51.2 °F 46.8 °F 29.64 in Calm   8 mph 85% 0 in 0.00 W/m2
02:19 50.9 °F 46.6 °F 29.63 in East 5 mph 7 mph 85% 0 in 0.00 W/m2
02:24 50.7 °F 46.7 °F 29.63 in ESE 4 mph 9 mph 86% 0 in 0.00 W/m2
02:29 50.7 °F 47 °F 29.63 in East 6 mph 9 mph 87% 0 in 0.00 W/m2
02:34 50.9 °F 47.5 °F 29.63 in East 6 mph 9 mph 88% 0 in 0.00 W/m2
02:39 51 °F 47.6 °F 29.64 in ENE 3 mph 9 mph 88% 0 in 0.00 W/m2
02:44 50.8 °F 47.1 °F 29.64 in Calm   6 mph 87% 0 in 0.00 W/m2
02:49 50.6 °F 46.9 °F 29.64 in ENE 2 mph 4 mph 87% 0 in 0.00 W/m2
02:54 50.5 °F 46.8 °F 29.64 in ENE 2 mph 4 mph 87% 0 in 0.00 W/m2
02:59 50.1 °F 46.4 °F 29.64 in ENE 2 mph 3 mph 87% 0 in 0.00 W/m2
03:04 49.8 °F 46.1 °F 29.64 in ENE 2 mph 3 mph 87% 0 in 0.00 W/m2
03:09 49.5 °F 46.1 °F 29.65 in ENE 1 mph 3 mph 88% 0 in 0.00 W/m2
03:14 49.3 °F 45.9 °F 29.65 in ENE 2 mph 3 mph 88% 0 in 0.00 W/m2
03:19 49.2 °F 46.1 °F 29.65 in NNE 4 mph 5 mph 89% 0 in 0.00 W/m2
03:24 49.2 °F 46.4 °F 29.65 in North 5 mph 7 mph 90% 0 in 0.00 W/m2
03:29 49.4 °F 46.6 °F 29.65 in NE 4 mph 7 mph 90% 0 in 0.00 W/m2
03:34 49.1 °F 46 °F 29.64 in NE 5 mph 6 mph 89% 0 in 0.00 W/m2
03:39 48.6 °F 45.5 °F 29.64 in NE 4 mph 6 mph 89% 0 in 0.00 W/m2
03:44 48.2 °F 45.1 °F 29.64 in NE 6 mph 7 mph 89% 0 in 0.00 W/m2
03:49 48.1 °F 45.3 °F 29.65 in NE 4 mph 7 mph 90% 0 in 0.00 W/m2
03:54 48.1 °F 45.3 °F 29.65 in NE 3 mph 7 mph 90% 0 in 0.00 W/m2
03:59 48 °F 45.5 °F 29.65 in NNE 4 mph 6 mph 91% 0 in 0.00 W/m2
04:04 48.2 °F 45.7 °F 29.66 in NNE 4 mph 6 mph 91% 0 in 0.00 W/m2
04:09 48.3 °F 46.1 °F 29.66 in NNE 4 mph 6 mph 92% 0 in 0.00 W/m2
04:14 48.4 °F 46.2 °F 29.66 in North 4 mph 6 mph 92% 0 in 0.00 W/m2
04:19 48.1 °F 45.6 °F 29.67 in NW 9 mph 12 mph 91% 0 in 0.00 W/m2
04:24 47.9 °F 45.4 °F 29.66 in NNE 4 mph 12 mph 91% 0 in 0.00 W/m2
04:29 47.4 °F 44.9 °F 29.67 in WNW 7 mph 11 mph 91% 0 in 0.00 W/m2
04:34 47 °F 44.5 °F 29.66 in Calm   11 mph 91% 0 in 0.00 W/m2
04:39 46.7 °F 44.2 °F 29.67 in NNW 9 mph 11 mph 91% 0 in 0.00 W/m2
04:44 46.7 °F 44.5 °F 29.66 in NNW 5 mph 9 mph 92% 0 in 0.00 W/m2
04:49 46.8 °F 44.9 °F 29.66 in NNE 10 mph 11 mph 93% 0 in 0.00 W/m2
04:54 47.5 °F 45.6 °F 29.67 in North 11 mph 15 mph 93% 0 in 0.00 W/m2
04:59 47.9 °F 46 °F 29.67 in North 12 mph 15 mph 93% 0 in 0.00 W/m2
05:04 48 °F 46.1 °F 29.67 in NNE 11 mph 14 mph 93% 0 in 0.00 W/m2
05:09 48.1 °F 46.2 °F 29.68 in NNW 6 mph 14 mph 93% 0 in 0.00 W/m2
05:14 48.1 °F 46.2 °F 29.68 in NNW 5 mph 13 mph 93% 0 in 0.00 W/m2
05:19 47.9 °F 45.7 °F 29.69 in NW 8 mph 13 mph 92% 0 in 0.00 W/m2
05:24 47.9 °F 46 °F 29.70 in NW 9 mph 11 mph 93% 0 in 0.00 W/m2
05:29 47.8 °F 45.6 °F 29.70 in NW 8 mph 11 mph 92% 0 in 0.00 W/m2
05:34 47.8 °F 45.6 °F 29.70 in NW 5 mph 11 mph 92% 0 in 0.00 W/m2
05:39 47.6 °F 45.4 °F 29.70 in NW 3 mph 11 mph 92% 0 in 0.00 W/m2
05:44 47.6 °F 45.4 °F 29.70 in NW 4 mph 6 mph 92% 0 in 0.00 W/m2
05:49 47.6 °F 45.4 °F 29.70 in NW 4 mph 6 mph 92% 0 in 0.00 W/m2
05:54 47.7 °F 45.5 °F 29.70 in North 8 mph 8 mph 92% 0 in 0.00 W/m2
05:59 47.7 °F 45.5 °F 29.70 in North 8 mph 10 mph 92% 0 in 0.00 W/m2
06:04 47.9 °F 46 °F 29.70 in North 6 mph 10 mph 93% 0 in 0.00 W/m2
06:09 48 °F 46.1 °F 29.70 in North 8 mph 10 mph 93% 0 in 5.00 W/m2
06:14 48 °F 46.1 °F 29.70 in NNE 4 mph 10 mph 93% 0 in 7.00 W/m2
06:19 47.8 °F 45.6 °F 29.70 in NNE 2 mph 9 mph 92% 0 in 9.00 W/m2
06:24 47.7 °F 45.5 °F 29.70 in NNE 2 mph 9 mph 92% 0 in 11.00 W/m2
06:29 47.6 °F 45.4 °F 29.71 in NNE 2 mph 9 mph 92% 0 in 14.00 W/m2
06:34 47.5 °F 45.3 °F 29.70 in NE 2 mph 4 mph 92% 0 in 16.00 W/m2
06:39 47.8 °F 45.9 °F 29.70 in ENE 5 mph 6 mph 93% 0 in 19.00 W/m2
06:44 47.9 °F 46 °F 29.71 in NW 5 mph 7 mph 93% 0 in 23.00 W/m2
06:49 47.8 °F 45.6 °F 29.72 in NW 4 mph 8 mph 92% 0 in 26.00 W/m2
06:54 47.4 °F 45.2 °F 29.71 in NW 5 mph 8 mph 92% 0 in 28.00 W/m2
06:59 47.2 °F 45 °F 29.71 in North 6 mph 8 mph 92% 0 in 30.00 W/m2
07:04 47.3 °F 45.4 °F 29.71 in North 5 mph 9 mph 93% 0 in 32.00 W/m2
07:09 47.7 °F 45.8 °F 29.72 in NNW 5 mph 9 mph 93% 0 in 33.00 W/m2
07:14 48.3 °F 47.8 °F 29.72 in NNW 4 mph 9 mph 98% 0 in 35.00 W/m2
07:19 48.8 °F 46.9 °F 29.73 in NW 4 mph 9 mph 93% 0 in 37.00 W/m2
07:24 48.6 °F 46.4 °F 29.73 in NW 4 mph 9 mph 92% 0 in 39.00 W/m2
07:29 48.4 °F 46.2 °F 29.74 in West 2 mph 9 mph 92% 0 in 40.00 W/m2
07:34 48.2 °F 46 °F 29.74 in Calm   9 mph 92% 0 in 42.00 W/m2
07:39 48.3 °F 46.4 °F 29.74 in West 1 mph 3 mph 93% 0 in 46.00 W/m2
07:44 48.8 °F 46.9 °F 29.74 in West 1 mph 4 mph 93% 0 in 156.00 W/m2
07:49 49.4 °F 47.7 °F 29.74 in WNW 3 mph 4 mph 94% 0 in 176.00 W/m2
07:54 50.4 °F 48.5 °F 29.74 in NW 4 mph 5 mph 93% 0 in 209.00 W/m2
07:59 51.4 °F 49.4 °F 29.74 in NW 4 mph 6 mph 93% 0 in 239.00 W/m2
08:04 52.2 °F 49.9 °F 29.74 in NNW 2 mph 8 mph 92% 0 in 149.00 W/m2
08:09 52.8 °F 50.2 °F 29.75 in North 9 mph 13 mph 91% 0 in 253.00 W/m2
08:14 53.6 °F 49.5 °F 29.75 in North 5 mph 13 mph 86% 0 in 167.00 W/m2
08:19 54 °F 48.3 °F 29.75 in North 7 mph 13 mph 81% 0 in 79.00 W/m2
08:24 54.2 °F 46.4 °F 29.75 in North 8 mph 13 mph 75% 0 in 81.00 W/m2
08:29 54.6 °F 45.8 °F 29.75 in NNE 5 mph 13 mph 72% 0 in 158.00 W/m2
08:34 55.6 °F 46 °F 29.75 in NE 11 mph 14 mph 70% 0 in 316.00 W/m2
08:39 56.7 °F 45.5 °F 29.75 in North 14 mph 15 mph 66% 0 in 330.00 W/m2
08:44 57.5 °F 44.6 °F 29.75 in NE 11 mph 18 mph 62% 0 in 352.00 W/m2
08:49 58.2 °F 44.4 °F 29.76 in NE 11 mph 18 mph 60% 0 in 364.00 W/m2
08:54 58.8 °F 43.6 °F 29.75 in NE 16 mph 18 mph 57% 0 in 374.00 W/m2
08:59 59.4 °F 42.7 °F 29.75 in NE 16 mph 21 mph 54% 0 in 394.00 W/m2
09:04 60.2 °F 42 °F 29.75 in NNE 10 mph 22 mph 51% 0 in 411.00 W/m2
09:09 61 °F 41.7 °F 29.75 in NNE 14 mph 22 mph 49% 0 in 431.00 W/m2
09:14 61.7 °F 40.7 °F 29.75 in ENE 23 mph 29 mph 46% 0 in 452.00 W/m2
09:19 62.1 °F 40.5 °F 29.76 in NE 17 mph 31 mph 45% 0 in 478.00 W/m2
09:24 62.5 °F 40.3 °F 29.75 in NE 17 mph 31 mph 44% 0 in 362.00 W/m2
09:29 62.8 °F 40.5 °F 29.75 in NE 26 mph 31 mph 44% 0 in 497.00 W/m2
09:34 63.5 °F 40.6 °F 29.76 in ENE 19 mph 29 mph 43% 0 in 445.00 W/m2
09:39 64.4 °F 41.4 °F 29.76 in NE 19 mph 30 mph 43% 0 in 527.00 W/m2
09:44 65.1 °F 41.4 °F 29.76 in ENE 16 mph 30 mph 42% 0 in 541.00 W/m2
09:49 65.3 °F 41 °F 29.76 in NE 17 mph 30 mph 41% 0 in 552.00 W/m2
09:54 65.9 °F 41.5 °F 29.77 in NNE 11 mph 30 mph 41% 0 in 568.00 W/m2
09:59 66.4 °F 40 °F 29.77 in NE 15 mph 25 mph 38% 0 in 575.00 W/m2
10:04 66.9 °F 40.5 °F 29.77 in NE 19 mph 27 mph 38% 0 in 589.00 W/m2
10:09 67 °F 41.2 °F 29.77 in NE 13 mph 27 mph 39% 0 in 599.00 W/m2
10:14 66.9 °F 41.8 °F 29.77 in ENE 20 mph 27 mph 40% 0 in 612.00 W/m2
10:19 67.2 °F 41.4 °F 29.78 in ENE 16 mph 27 mph 39% 0 in 626.00 W/m2
10:24 67.5 °F 42.3 °F 29.77 in NE 22 mph 28 mph 40% 0 in 638.00 W/m2
10:29 67.9 °F 41.3 °F 29.78 in NE 14 mph 28 mph 38% 0 in 650.00 W/m2
10:34 67.9 °F 40.7 °F 29.78 in ENE 15 mph 28 mph 37% 0 in 661.00 W/m2
10:39 68.1 °F 40.8 °F 29.78 in NE 17 mph 28 mph 37% 0 in 673.00 W/m2
10:44 68.5 °F 39.8 °F 29.78 in NE 15 mph 24 mph 35% 0 in 686.00 W/m2
10:49 68.7 °F 39.9 °F 29.78 in NNE 19 mph 25 mph 35% 0 in 701.00 W/m2
10:54 69 °F 40.2 °F 29.78 in NE 14 mph 25 mph 35% 0 in 714.00 W/m2
10:59 68.8 °F 40 °F 29.78 in NNE 12 mph 25 mph 35% 0 in 722.00 W/m2
11:04 68.9 °F 40.1 °F 29.79 in ENE 12 mph 25 mph 35% 0 in 714.00 W/m2
11:09 69.6 °F 40.7 °F 29.78 in NE 12 mph 23 mph 35% 0 in 703.00 W/m2
11:14 69.2 °F 38.9 °F 29.79 in East 18 mph 22 mph 33% 0 in 675.00 W/m2
11:19 68.8 °F 39.3 °F 29.79 in NE 18 mph 23 mph 34% 0 in 642.00 W/m2
11:24 68.8 °F 39.3 °F 29.79 in ENE 11 mph 23 mph 34% 0 in 619.00 W/m2
11:29 69 °F 39.4 °F 29.79 in East 18 mph 26 mph 34% 0 in 615.00 W/m2
11:34 68.9 °F 39.4 °F 29.79 in ENE 21 mph 26 mph 34% 0 in 640.00 W/m2
11:39 68.2 °F 38.7 °F 29.79 in ENE 19 mph 26 mph 34% 0 in 689.00 W/m2
11:44 68.7 °F 39.2 °F 29.79 in ENE 13 mph 26 mph 34% 0 in 740.00 W/m2
11:49 68.6 °F 39.1 °F 29.79 in East 18 mph 26 mph 34% 0 in 795.00 W/m2
11:54 68.7 °F 38.4 °F 29.80 in NE 17 mph 26 mph 33% 0 in 819.00 W/m2
11:59 68.7 °F 38.4 °F 29.80 in ENE 14 mph 25 mph 33% 0 in 828.00 W/m2
12:04 69 °F 39.4 °F 29.80 in ENE 13 mph 25 mph 34% 0 in 833.00 W/m2
12:09 69.4 °F 39.8 °F 29.80 in ENE 17 mph 21 mph 34% 0 in 840.00 W/m2
12:14 69.8 °F 40.2 °F 29.80 in ENE 19 mph 23 mph 34% 0 in 847.00 W/m2
12:19 69.4 °F 39 °F 29.80 in ENE 18 mph 26 mph 33% 0 in 854.00 W/m2
12:24 69.2 °F 39.6 °F 29.80 in ENE 20 mph 26 mph 34% 0 in 853.00 W/m2
12:29 69.1 °F 39.5 °F 29.81 in East 16 mph 26 mph 34% 0 in 863.00 W/m2
12:34 69.4 °F 40.5 °F 29.80 in ENE 11 mph 26 mph 35% 0 in 867.00 W/m2
12:39 69.8 °F 40.9 °F 29.80 in ENE 17 mph 23 mph 35% 0 in 874.00 W/m2
12:44 69.8 °F 40.2 °F 29.80 in ENE 11 mph 23 mph 34% 0 in 877.00 W/m2
12:49 69.7 °F 40.8 °F 29.80 in ENE 16 mph 22 mph 35% 0 in 882.00 W/m2
12:54 70.1 °F 41.9 °F 29.80 in East 11 mph 22 mph 36% 0 in 888.00 W/m2
12:59 70.4 °F 42.2 °F 29.80 in ENE 16 mph 22 mph 36% 0 in 895.00 W/m2
13:04 70.5 °F 41.5 °F 29.80 in ENE 15 mph 20 mph 35% 0 in 896.00 W/m2
13:09 70.3 °F 42.1 °F 29.80 in ENE 10 mph 21 mph 36% 0 in 898.00 W/m2
13:14 70.7 °F 43.8 °F 29.80 in East 12 mph 21 mph 38% 0 in 900.00 W/m2
13:19 71.3 °F 43 °F 29.81 in ENE 15 mph 21 mph 36% 0 in 900.00 W/m2
13:24 71.5 °F 42.4 °F 29.81 in East 14 mph 21 mph 35% 0 in 902.00 W/m2
13:29 71.3 °F 43.7 °F 29.81 in East 11 mph 19 mph 37% 0 in 900.00 W/m2
13:34 71.6 °F 43.2 °F 29.80 in ENE 12 mph 19 mph 36% 0 in 902.00 W/m2
13:39 71.6 °F 43.2 °F 29.80 in East 8 mph 19 mph 36% 0 in 905.00 W/m2
13:44 72 °F 42.1 °F 29.80 in NE 12 mph 19 mph 34% 0 in 905.00 W/m2
13:49 72.3 °F 42.3 °F 29.80 in ESE 12 mph 19 mph 34% 0 in 904.00 W/m2
13:54 72.6 °F 43.4 °F 29.80 in East 16 mph 17 mph 35% 0 in 905.00 W/m2
13:59 72.3 °F 43.1 °F 29.79 in ENE 19 mph 19 mph 35% 0 in 904.00 W/m2
14:04 72.4 °F 42.4 °F 29.79 in East 16 mph 19 mph 34% 0 in 902.00 W/m2
14:09 72.5 °F 43.3 °F 29.79 in ENE 9 mph 19 mph 35% 0 in 902.00 W/m2
14:14 72.7 °F 41.9 °F 29.80 in NE 10 mph 19 mph 33% 0 in 898.00 W/m2
14:19 73 °F 41.4 °F 29.80 in NE 12 mph 19 mph 32% 0 in 895.00 W/m2
14:24 73.1 °F 43.1 °F 29.79 in ENE 5 mph 18 mph 34% 0 in 891.00 W/m2
14:29 73.4 °F 41.7 °F 29.79 in East 10 mph 18 mph 32% 0 in 891.00 W/m2
14:34 73.4 °F 44.1 °F 29.79 in ENE 14 mph 18 mph 35% 0 in 891.00 W/m2
14:39 73.9 °F 44.5 °F 29.80 in NE 6 mph 18 mph 35% 0 in 886.00 W/m2
14:44 74.6 °F 42.8 °F 29.80 in ENE 5 mph 18 mph 32% 0 in 904.00 W/m2
14:49 74.1 °F 43.1 °F 29.80 in East 4 mph 15 mph 33% 0 in 895.00 W/m2
14:54 74.2 °F 43.2 °F 29.80 in ENE 3 mph 15 mph 33% 0 in 875.00 W/m2
14:59 74.2 °F 41.6 °F 29.80 in ENE 14 mph 15 mph 31% 0 in 875.00 W/m2
15:04 74.6 °F 42 °F 29.80 in ENE 7 mph 18 mph 31% 0 in 870.00 W/m2
15:09 74.1 °F 42.3 °F 29.80 in ESE 16 mph 18 mph 32% 0 in 877.00 W/m2
15:14 75 °F 45.5 °F 29.80 in NNE 10 mph 23 mph 35% 0 in 865.00 W/m2
15:19 75.3 °F 42.6 °F 29.80 in East 7 mph 23 mph 31% 0 in 812.00 W/m2
15:24 74.5 °F 45 °F 29.80 in NE 9 mph 23 mph 35% 0 in 399.00 W/m2
15:29 74 °F 43.1 °F 29.79 in ENE 5 mph 23 mph 33% 0 in 302.00 W/m2
15:34 72.9 °F 41.3 °F 29.78 in ENE 9 mph 13 mph 32% 0 in 475.00 W/m2
15:39 73 °F 42.2 °F 29.79 in East 7 mph 17 mph 33% 0 in 944.00 W/m2
15:44 74 °F 42.3 °F 29.79 in NE 15 mph 17 mph 32% 0 in 652.00 W/m2
15:49 74.8 °F 43 °F 29.79 in NE 12 mph 16 mph 32% 0 in 909.00 W/m2
15:54 75.1 °F 44.8 °F 29.79 in NE 4 mph 16 mph 34% 0 in 833.00 W/m2
15:59 75.4 °F 42.7 °F 29.79 in NNE 6 mph 16 mph 31% 0 in 775.00 W/m2
16:04 75.3 °F 41.7 °F 29.79 in ESE 4 mph 16 mph 30% 0 in 747.00 W/m2
16:09 74.8 °F 43 °F 29.79 in North 2 mph 12 mph 32% 0 in 406.00 W/m2
16:14 74.4 °F 42.6 °F 29.79 in North 6 mph 12 mph 32% 0 in 308.00 W/m2
16:19 74.4 °F 45.7 °F 29.79 in North 14 mph 14 mph 36% 0 in 436.00 W/m2
16:24 74.7 °F 46.7 °F 29.79 in NE 6 mph 16 mph 37% 0 in 478.00 W/m2
16:29 74.9 °F 44.6 °F 29.79 in NE 7 mph 16 mph 34% 0 in 817.00 W/m2
16:34 74.7 °F 43.7 °F 29.79 in ENE 10 mph 16 mph 33% 0 in 258.00 W/m2
16:39 74.1 °F 43.1 °F 29.80 in North 6 mph 16 mph 33% 0 in 269.00 W/m2
16:44 73.7 °F 42.8 °F 29.80 in NE 14 mph 15 mph 33% 0 in 292.00 W/m2
16:49 73.4 °F 41.7 °F 29.80 in NE 10 mph 15 mph 32% 0 in 288.00 W/m2
16:54 73.5 °F 43.4 °F 29.80 in NE 5 mph 14 mph 34% 0 in 396.00 W/m2
16:59 74.3 °F 42.5 °F 29.80 in NNE 7 mph 13 mph 32% 0 in 471.00 W/m2
17:04 75.1 °F 44 °F 29.79 in NNW 5 mph 13 mph 33% 0 in 684.00 W/m2
17:09 75.6 °F 43.7 °F 29.79 in NE 11 mph 12 mph 32% 0 in 649.00 W/m2
17:14 75.9 °F 43.1 °F 29.79 in NW 8 mph 13 mph 31% 0 in 652.00 W/m2
17:19 76 °F 44 °F 29.78 in NNW 5 mph 14 mph 32% 0 in 677.00 W/m2
17:24 76.2 °F 41.6 °F 29.79 in East 2 mph 14 mph 29% 0 in 621.00 W/m2
17:29 76.4 °F 43.5 °F 29.79 in North 4 mph 14 mph 31% 0 in 612.00 W/m2
17:34 76.6 °F 42.8 °F 29.78 in ENE 12 mph 14 mph 30% 0 in 587.00 W/m2
17:39 76 °F 41.4 °F 29.79 in NNE 9 mph 16 mph 29% 0 in 568.00 W/m2
17:44 75.5 °F 41 °F 29.78 in NE 10 mph 17 mph 29% 0 in 592.00 W/m2
17:49 74.7 °F 40.3 °F 29.78 in NE 5 mph 17 mph 29% 0 in 265.00 W/m2
17:54 74 °F 40.6 °F 29.79 in NE 7 mph 17 mph 30% 0 in 165.00 W/m2
17:59 74.1 °F 44.7 °F 29.79 in North 14 mph 17 mph 35% 0 in 515.00 W/m2
18:04 74.6 °F 43.6 °F 29.79 in NNE 11 mph 19 mph 33% 0 in 482.00 W/m2
18:09 74.8 °F 43 °F 29.79 in NNE 7 mph 19 mph 32% 0 in 464.00 W/m2
18:14 75 °F 41.5 °F 29.79 in NNE 8 mph 19 mph 30% 0 in 446.00 W/m2
18:19 74.7 °F 42 °F 29.79 in NE 19 mph 21 mph 31% 0 in 429.00 W/m2
18:24 74 °F 42.3 °F 29.79 in NE 6 mph 21 mph 32% 0 in 408.00 W/m2
18:29 73.8 °F 42.9 °F 29.79 in NE 12 mph 20 mph 33% 0 in 394.00 W/m2
18:34 73.9 °F 43 °F 29.79 in NNE 8 mph 20 mph 33% 0 in 394.00 W/m2
18:39 73.8 °F 44.4 °F 29.79 in NE 7 mph 20 mph 35% 0 in 376.00 W/m2
18:44 73.7 °F 43.6 °F 29.79 in NE 13 mph 15 mph 34% 0 in 357.00 W/m2
18:49 73.6 °F 41.9 °F 29.79 in NE 15 mph 16 mph 32% 0 in 343.00 W/m2
18:54 73.2 °F 42.4 °F 29.79 in NE 14 mph 16 mph 33% 0 in 339.00 W/m2
18:59 72.8 °F 41.2 °F 29.79 in NE 14 mph 16 mph 32% 0 in 320.00 W/m2
19:04 72.4 °F 41.7 °F 29.79 in ENE 11 mph 16 mph 33% 0 in 287.00 W/m2
19:09 72.1 °F 41.4 °F 29.79 in NE 9 mph 16 mph 33% 0 in 272.00 W/m2
19:14 72.2 °F 42.3 °F 29.79 in NE 11 mph 16 mph 34% 0 in 258.00 W/m2
19:19 72.1 °F 42.9 °F 29.79 in NNE 8 mph 14 mph 35% 0 in 246.00 W/m2
19:24 72.1 °F 41.4 °F 29.79 in NE 10 mph 14 mph 33% 0 in 230.00 W/m2
19:29 72 °F 42.1 °F 29.79 in NE 9 mph 14 mph 34% 0 in 213.00 W/m2
19:34 72 °F 42.1 °F 29.79 in ENE 10 mph 13 mph 34% 0 in 195.00 W/m2
19:39 71.8 °F 41.1 °F 29.79 in NE 9 mph 12 mph 33% 0 in 178.00 W/m2
19:44 71.7 °F 41 °F 29.79 in NE 6 mph 12 mph 33% 0 in 163.00 W/m2
19:49 71.7 °F 41.8 °F 29.79 in NE 5 mph 12 mph 34% 0 in 146.00 W/m2
19:54 71.6 °F 41.7 °F 29.79 in NE 9 mph 12 mph 34% 0 in 130.00 W/m2
19:59 71.4 °F 41.6 °F 29.79 in ENE 6 mph 12 mph 34% 0 in 116.00 W/m2
20:04 71.2 °F 41.4 °F 29.79 in ENE 8 mph 12 mph 34% 0 in 100.00 W/m2
20:09 71 °F 42 °F 29.79 in ENE 5 mph 12 mph 35% 0 in 84.00 W/m2
20:14 70.8 °F 41.8 °F 29.79 in ENE 5 mph 12 mph 35% 0 in 76.00 W/m2
20:19 70.5 °F 41.5 °F 29.79 in East 4 mph 9 mph 35% 0 in 63.00 W/m2
20:24 70.1 °F 41.9 °F 29.79 in ENE 3 mph 8 mph 36% 0 in 53.00 W/m2
20:29 69.7 °F 42.3 °F 29.79 in ENE 6 mph 8 mph 37% 0 in 44.00 W/m2
20:34 69.3 °F 41.9 °F 29.79 in ENE 4 mph 8 mph 37% 0 in 35.00 W/m2
20:39 68.9 °F 42.2 °F 29.79 in ENE 4 mph 8 mph 38% 0 in 26.00 W/m2
20:44 68.4 °F 42.5 °F 29.79 in ENE 4 mph 9 mph 39% 0 in 21.00 W/m2
20:49 67.8 °F 42.6 °F 29.79 in ENE 5 mph 9 mph 40% 0 in 18.00 W/m2
20:54 67.3 °F 42.8 °F 29.79 in ENE 4 mph 9 mph 41% 0 in 12.00 W/m2
20:59 66.7 °F 42.2 °F 29.79 in ENE 6 mph 9 mph 41% 0 in 9.00 W/m2
21:04 66.2 °F 42.4 °F 29.79 in ENE 5 mph 9 mph 42% 0 in 5.00 W/m2
21:09 65.7 °F 42 °F 29.79 in ENE 4 mph 8 mph 42% 0 in 5.00 W/m2
21:14 65.4 °F 41.7 °F 29.79 in ENE 6 mph 10 mph 42% 0 in 0.00 W/m2
21:19 65.1 °F 42 °F 29.79 in ENE 7 mph 10 mph 43% 0 in 0.00 W/m2
21:24 64.9 °F 41.9 °F 29.79 in ENE 5 mph 9 mph 43% 0 in 0.00 W/m2
21:29 64.5 °F 41.5 °F 29.79 in ENE 7 mph 9 mph 43% 0 in 0.00 W/m2
21:34 64.2 °F 41.2 °F 29.79 in East 7 mph 9 mph 43% 0 in 0.00 W/m2
21:39 63.9 °F 41.5 °F 29.80 in ENE 6 mph 9 mph 44% 0 in 0.00 W/m2
21:44 63.6 °F 41.3 °F 29.80 in ENE 5 mph 9 mph 44% 0 in 0.00 W/m2
21:49 63.4 °F 41.1 °F 29.80 in ENE 5 mph 9 mph 44% 0 in 0.00 W/m2
21:54 63.2 °F 41.5 °F 29.80 in ENE 7 mph 9 mph 45% 0 in 0.00 W/m2
21:59 62.8 °F 41.7 °F 29.80 in ENE 5 mph 9 mph 46% 0 in 0.00 W/m2
22:04 62.3 °F 41.2 °F 29.80 in ENE 6 mph 9 mph 46% 0 in 0.00 W/m2
22:09 62 °F 41.5 °F 29.80 in NE 7 mph 9 mph 47% 0 in 0.00 W/m2
22:14 61.7 °F 41.3 °F 29.80 in ENE 8 mph 9 mph 47% 0 in 0.00 W/m2
22:19 61.5 °F 41.6 °F 29.80 in ENE 6 mph 9 mph 48% 0 in 0.00 W/m2
22:24 61.8 °F 41.3 °F 29.81 in East 8 mph 11 mph 47% 0 in 0.00 W/m2
22:29 62.2 °F 41.7 °F 29.81 in East 8 mph 11 mph 47% 0 in 0.00 W/m2
22:34 62.2 °F 41.7 °F 29.81 in East 8 mph 11 mph 47% 0 in 0.00 W/m2
22:39 62 °F 42.6 °F 29.81 in ESE 6 mph 11 mph 49% 0 in 0.00 W/m2
22:44 61.2 °F 41.9 °F 29.82 in East 9 mph 10 mph 49% 0 in 0.00 W/m2
22:49 60.3 °F 42.1 °F 29.82 in East 10 mph 12 mph 51% 0 in 0.00 W/m2
22:54 59.5 °F 42.3 °F 29.82 in East 10 mph 12 mph 53% 0 in 0.00 W/m2
22:59 59.3 °F 42.6 °F 29.82 in East 8 mph 12 mph 54% 0 in 0.00 W/m2
23:04 59 °F 42.4 °F 29.81 in East 7 mph 13 mph 54% 0 in 0.00 W/m2
23:09 58.7 °F 42.6 °F 29.82 in East 7 mph 13 mph 55% 0 in 0.00 W/m2
23:14 58.6 °F 42.5 °F 29.82 in East 12 mph 14 mph 55% 0 in 0.00 W/m2
23:19 58.2 °F 42.6 °F 29.82 in East 10 mph 14 mph 56% 0 in 0.00 W/m2
23:24 57.6 °F 42.5 °F 29.82 in East 12 mph 14 mph 57% 0 in 0.00 W/m2
23:29 57.6 °F 42.5 °F 29.81 in ENE 8 mph 15 mph 57% 0 in 0.00 W/m2
23:34 57.5 °F 42.4 °F 29.81 in ENE 12 mph 15 mph 57% 0 in 0.00 W/m2
23:39 57.2 °F 42.5 °F 29.81 in East 9 mph 15 mph 58% 0 in 0.00 W/m2
23:44 56.6 °F 42.4 °F 29.81 in East 9 mph 15 mph 59% 0 in 0.00 W/m2
23:49 56.2 °F 42.5 °F 29.81 in East 10 mph 15 mph 60% 0 in 0.00 W/m2
23:54 56 °F 42.7 °F 29.81 in East 8 mph 15 mph 61% 0 in 0.00 W/m2
23:59 56.2 °F 42.5 °F 29.81 in ENE 7 mph 13 mph 60% 0 in 0.00 W/m2
Bismarck, North Dakota, USA
Compliments of Weather Underground - 4 mb